EGCCEGLC

Guest
Details From EGCC - Manchester
To EGLC - London City
Flight Number -
Tags Routegen
Created
Modified
Stats Distance 140 nm / 259 km
Max Altitude 0 ft / 0 m
Waypoints 2
Social Downloads 25
Likes 0
Share VATSIM

Download

Looking for another format? Having issues loading an existing format? Contact us
Advertisement - Login to hide

Notes

None

Route

EGCC EGLC

ID Type Via Altitude (ft/m) Position (lat/lon) Dist (leg/tot) Name
O EGCC APT - 0 / 0 53.34514 / -2.29274 - / 0 nm
O EGLC APT - 0 / 0 51.50558 / 0.04414 139 / 139 nm

Altitude Profile

Advertisement - Login to hide

EGCC

Details ICAO EGCC (MAN)
Name Manchester Intl
Region United Kingdom
Timezone Europe/London (UTC+1.0)
Stats Elevation 257 ft / 78 m (AMSL)
Location 53.347400° -2.283480°
Runways 2
Magnetic Variation 1.186° W

METAR

EGCC 151820Z VRB02KT 7000 -RADZ BKN011 13/12 Q1023 TEMPO 4000 RADZ BKN007

Decode

TAF

TAF EGCC 151659Z 1518/1624 33004KT 9999 FEW008 BKN015 TEMPO 1518/1521 4000 RADZ BKN007 TEMPO 1521/1611 4500 -RADZ BKN007 PROB30 TEMPO 1521/1610 BKN004 BECMG 1617/1620 CAVOK

Decode

Departure Runways

ID Width Length Bearing (true/mag) Surface Threshold Overrun Markings Lighting
05L 151 ft / 46 m 9,980 ft / 3,042 m 51.00° / 52.18° ASPHALT 1,401 ft / 427 m 0 ft / 0 m PREC-APP CENTERLINE EDGE THRESHOLD ALSF-II TDZ REIL-UNI
05R 144 ft / 44 m 10,519 ft / 3,206 m 50.98° / 52.16° ASPHALT 0 ft / 0 m 0 ft / 0 m UK-PREC-APP CENTERLINE EDGE THRESHOLD ALSF-I REIL-UNI
23L 144 ft / 44 m 10,519 ft / 3,206 m 231.00° / 232.19° ASPHALT 1,093 ft / 333 m 0 ft / 0 m UK-PREC-APP CENTERLINE EDGE THRESHOLD ALSF-I REIL-UNI
23R 151 ft / 46 m 9,980 ft / 3,042 m 231.03° / 232.21° ASPHALT 597 ft / 182 m 200 ft / 61 m PREC-APP CENTERLINE EDGE THRESHOLD ALSF-II TDZ REIL-UNI

EGLC

Details ICAO EGLC (LCY)
Name London City
Region United Kingdom
Timezone Europe/London (UTC+1.0)
Stats Elevation 19 ft / 6 m (AMSL)
Location 51.505200° 0.055183°
Runways 1
Magnetic Variation 0.128° W

METAR

EGLC 151820Z AUTO 30006KT 9999 NCD 24/15 Q1022

Decode

TAF

Not found

Destination Runways

ID Width Length Bearing (true/mag) Surface Threshold Overrun Markings Lighting
09 98 ft / 30 m 4,914 ft / 1,498 m 92.88° / 93.01° ASPHALT 308 ft / 94 m 190 ft / 58 m UK-PREC-APP CENTERLINE EDGE THRESHOLD MALS REIL-OMNI
27 98 ft / 30 m 4,914 ft / 1,498 m 272.90° / 273.02° ASPHALT 233 ft / 71 m 302 ft / 92 m UK-PREC-APP CENTERLINE EDGE THRESHOLD MALS REIL-OMNI

Approach Navaids

Runway Type Ident Frequency Range Bearing (true/mag) Slope Elevation
09 LOC-ILS ILST 111.15 MHz 25 nm / 46 km 92.89° / 93.02 ° - 19 ft / 6 m (AMSL)
09 DME ILST 111.15 MHz 18 nm / 33 km - - 48 ft / 15 m (AMSL)
09 GS ILST 111.15 MHz 10 nm / 19 km 92.87° / 93.00 ° 5.50° 19 ft / 6 m (AMSL)
27 GS ILSR 111.15 MHz 10 nm / 19 km 272.87° / 273.00 ° 5.50° 19 ft / 6 m (AMSL)
27 DME ILSR 111.15 MHz 18 nm / 33 km - - 48 ft / 15 m (AMSL)
27 LOC-ILS ILSR 111.15 MHz 25 nm / 46 km 272.89° / 273.02 ° - 19 ft / 6 m (AMSL)

Popular Alternatives